sensor_id;sensor_type;location;lat;lon;timestamp;P1;durP1;ratioP1;P2;durP2;ratioP2
64313;SDS011;50650;48.180;11.524;2022-11-11T00:00:10;9.10;;;4.68;;
64313;SDS011;50650;48.180;11.524;2022-11-11T00:02:38;8.57;;;4.47;;
64313;SDS011;50650;48.180;11.524;2022-11-11T00:05:04;9.32;;;4.25;;
64313;SDS011;50650;48.180;11.524;2022-11-11T00:07:31;7.93;;;4.28;;
64313;SDS011;50650;48.180;11.524;2022-11-11T00:09:58;10.70;;;4.45;;
64313;SDS011;50650;48.180;11.524;2022-11-11T00:12:25;11.88;;;4.50;;
64313;SDS011;50650;48.180;11.524;2022-11-11T00:14:52;8.15;;;4.45;;
64313;SDS011;50650;48.180;11.524;2022-11-11T00:17:18;10.18;;;4.70;;
64313;SDS011;50650;48.180;11.524;2022-11-11T00:20:03;8.90;;;5.15;;
64313;SDS011;50650;48.180;11.524;2022-11-11T00:22:47;10.88;;;4.80;;
64313;SDS011;50650;48.180;11.524;2022-11-11T00:25:32;9.85;;;5.47;;
64313;SDS011;50650;48.180;11.524;2022-11-11T00:27:59;12.52;;;5.90;;
64313;SDS011;50650;48.180;11.524;2022-11-11T00:30:26;9.38;;;4.78;;
64313;SDS011;50650;48.180;11.524;2022-11-11T00:32:53;9.38;;;5.00;;
64313;SDS011;50650;48.180;11.524;2022-11-11T00:35:20;10.15;;;4.32;;
64313;SDS011;50650;48.180;11.524;2022-11-11T00:38:07;11.60;;;4.78;;
64313;SDS011;50650;48.180;11.524;2022-11-11T00:40:35;10.65;;;4.45;;
64313;SDS011;50650;48.180;11.524;2022-11-11T00:43:03;12.32;;;5.00;;
64313;SDS011;50650;48.180;11.524;2022-11-11T00:45:30;7.30;;;4.45;;
64313;SDS011;50650;48.180;11.524;2022-11-11T00:47:56;8.73;;;4.78;;
64313;SDS011;50650;48.180;11.524;2022-11-11T00:50:41;13.93;;;4.80;;
64313;SDS011;50650;48.180;11.524;2022-11-11T00:53:27;10.40;;;4.70;;
64313;SDS011;50650;48.180;11.524;2022-11-11T00:55:55;9.65;;;4.43;;
64313;SDS011;50650;48.180;11.524;2022-11-11T00:58:23;7.18;;;4.30;;
64313;SDS011;50650;48.180;11.524;2022-11-11T01:00:52;7.97;;;4.00;;
64313;SDS011;50650;48.180;11.524;2022-11-11T01:03:18;7.50;;;4.00;;
64313;SDS011;50650;48.180;11.524;2022-11-11T01:05:45;9.82;;;3.67;;
64313;SDS011;50650;48.180;11.524;2022-11-11T01:08:12;9.65;;;3.25;;
64313;SDS011;50650;48.180;11.524;2022-11-11T01:10:39;6.68;;;3.35;;
64313;SDS011;50650;48.180;11.524;2022-11-11T01:13:13;6.97;;;2.92;;
64313;SDS011;50650;48.180;11.524;2022-11-11T01:15:43;4.97;;;2.92;;
64313;SDS011;50650;48.180;11.524;2022-11-11T01:18:11;7.70;;;3.42;;
64313;SDS011;50650;48.180;11.524;2022-11-11T01:20:40;7.47;;;3.80;;
64313;SDS011;50650;48.180;11.524;2022-11-11T01:23:07;5.80;;;3.08;;
64313;SDS011;50650;48.180;11.524;2022-11-11T01:25:34;5.70;;;3.10;;
64313;SDS011;50650;48.180;11.524;2022-11-11T01:28:02;8.38;;;3.47;;
64313;SDS011;50650;48.180;11.524;2022-11-11T01:30:30;7.82;;;3.80;;
64313;SDS011;50650;48.180;11.524;2022-11-11T01:32:58;7.07;;;3.78;;
64313;SDS011;50650;48.180;11.524;2022-11-11T01:35:25;6.15;;;3.50;;
64313;SDS011;50650;48.180;11.524;2022-11-11T01:37:52;7.05;;;3.92;;
64313;SDS011;50650;48.180;11.524;2022-11-11T01:40:18;5.75;;;3.58;;
64313;SDS011;50650;48.180;11.524;2022-11-11T01:42:45;8.63;;;3.55;;
64313;SDS011;50650;48.180;11.524;2022-11-11T01:48:14;6.15;;;4.15;;
64313;SDS011;50650;48.180;11.524;2022-11-11T01:51:02;7.22;;;4.28;;
64313;SDS011;50650;48.180;11.524;2022-11-11T01:53:31;6.70;;;4.43;;
64313;SDS011;50650;48.180;11.524;2022-11-11T01:55:57;6.80;;;4.57;;
64313;SDS011;50650;48.180;11.524;2022-11-11T01:58:24;7.22;;;4.18;;
64313;SDS011;50650;48.180;11.524;2022-11-11T02:00:51;8.25;;;4.38;;
64313;SDS011;50650;48.180;11.524;2022-11-11T02:03:19;5.68;;;3.47;;
64313;SDS011;50650;48.180;11.524;2022-11-11T02:05:46;8.35;;;3.88;;
64313;SDS011;50650;48.180;11.524;2022-11-11T02:08:14;8.43;;;4.00;;
64313;SDS011;50650;48.180;11.524;2022-11-11T02:10:56;8.30;;;3.70;;
64313;SDS011;50650;48.180;11.524;2022-11-11T02:13:24;6.82;;;4.20;;
64313;SDS011;50650;48.180;11.524;2022-11-11T02:16:08;7.07;;;3.90;;
64313;SDS011;50650;48.180;11.524;2022-11-11T02:18:36;7.00;;;3.92;;
64313;SDS011;50650;48.180;11.524;2022-11-11T02:21:03;12.55;;;5.53;;
64313;SDS011;50650;48.180;11.524;2022-11-11T02:23:30;11.88;;;5.50;;
64313;SDS011;50650;48.180;11.524;2022-11-11T02:26:01;10.10;;;4.97;;
64313;SDS011;50650;48.180;11.524;2022-11-11T02:28:29;9.63;;;4.32;;
64313;SDS011;50650;48.180;11.524;2022-11-11T02:30:57;10.52;;;4.22;;
64313;SDS011;50650;48.180;11.524;2022-11-11T02:33:23;8.63;;;4.13;;
64313;SDS011;50650;48.180;11.524;2022-11-11T02:35:50;7.30;;;4.07;;
64313;SDS011;50650;48.180;11.524;2022-11-11T02:38:21;8.23;;;3.67;;
64313;SDS011;50650;48.180;11.524;2022-11-11T02:40:48;7.88;;;4.10;;
64313;SDS011;50650;48.180;11.524;2022-11-11T02:43:30;7.53;;;3.92;;
64313;SDS011;50650;48.180;11.524;2022-11-11T02:45:57;6.68;;;4.47;;
64313;SDS011;50650;48.180;11.524;2022-11-11T02:48:24;8.10;;;4.60;;
64313;SDS011;50650;48.180;11.524;2022-11-11T02:50:51;7.63;;;4.28;;
64313;SDS011;50650;48.180;11.524;2022-11-11T02:53:18;10.25;;;4.32;;
64313;SDS011;50650;48.180;11.524;2022-11-11T02:55:45;9.98;;;4.63;;
64313;SDS011;50650;48.180;11.524;2022-11-11T02:58:12;8.23;;;5.00;;
64313;SDS011;50650;48.180;11.524;2022-11-11T03:00:40;8.27;;;4.65;;
64313;SDS011;50650;48.180;11.524;2022-11-11T03:03:07;8.38;;;4.60;;
64313;SDS011;50650;48.180;11.524;2022-11-11T03:05:34;9.25;;;5.40;;
64313;SDS011;50650;48.180;11.524;2022-11-11T03:08:00;11.15;;;5.13;;
64313;SDS011;50650;48.180;11.524;2022-11-11T03:10:27;7.93;;;5.30;;
64313;SDS011;50650;48.180;11.524;2022-11-11T03:12:54;11.30;;;5.00;;
64313;SDS011;50650;48.180;11.524;2022-11-11T03:15:21;8.40;;;4.60;;
64313;SDS011;50650;48.180;11.524;2022-11-11T03:17:49;8.77;;;4.50;;
64313;SDS011;50650;48.180;11.524;2022-11-11T03:20:15;8.27;;;4.50;;
64313;SDS011;50650;48.180;11.524;2022-11-11T03:25:26;7.63;;;4.68;;
64313;SDS011;50650;48.180;11.524;2022-11-11T03:28:06;6.25;;;4.60;;
64313;SDS011;50650;48.180;11.524;2022-11-11T03:30:33;8.63;;;5.30;;
64313;SDS011;50650;48.180;11.524;2022-11-11T03:33:01;9.85;;;5.03;;
64313;SDS011;50650;48.180;11.524;2022-11-11T03:35:28;8.75;;;5.30;;
64313;SDS011;50650;48.180;11.524;2022-11-11T03:37:55;10.35;;;5.05;;
64313;SDS011;50650;48.180;11.524;2022-11-11T03:40:39;11.30;;;5.50;;
64313;SDS011;50650;48.180;11.524;2022-11-11T03:43:06;8.95;;;4.63;;
64313;SDS011;50650;48.180;11.524;2022-11-11T03:45:32;9.63;;;4.45;;
64313;SDS011;50650;48.180;11.524;2022-11-11T03:47:59;8.98;;;4.47;;
64313;SDS011;50650;48.180;11.524;2022-11-11T03:50:27;8.65;;;4.85;;
64313;SDS011;50650;48.180;11.524;2022-11-11T03:52:54;6.03;;;4.00;;
64313;SDS011;50650;48.180;11.524;2022-11-11T03:55:20;8.82;;;4.40;;
64313;SDS011;50650;48.180;11.524;2022-11-11T03:57:47;8.48;;;4.43;;
64313;SDS011;50650;48.180;11.524;2022-11-11T04:00:14;8.60;;;4.50;;
64313;SDS011;50650;48.180;11.524;2022-11-11T04:02:42;8.80;;;4.72;;
64313;SDS011;50650;48.180;11.524;2022-11-11T04:05:27;7.80;;;4.40;;
64313;SDS011;50650;48.180;11.524;2022-11-11T04:08:11;8.80;;;4.63;;
64313;SDS011;50650;48.180;11.524;2022-11-11T04:10:56;8.98;;;4.75;;
64313;SDS011;50650;48.180;11.524;2022-11-11T04:13:23;8.88;;;4.28;;
64313;SDS011;50650;48.180;11.524;2022-11-11T04:16:07;8.65;;;4.63;;
64313;SDS011;50650;48.180;11.524;2022-11-11T04:18:34;9.45;;;4.60;;
64313;SDS011;50650;48.180;11.524;2022-11-11T04:21:20;9.45;;;4.60;;
64313;SDS011;50650;48.180;11.524;2022-11-11T04:24:04;7.03;;;4.47;;
64313;SDS011;50650;48.180;11.524;2022-11-11T04:26:52;12.10;;;4.53;;
64313;SDS011;50650;48.180;11.524;2022-11-11T04:29:18;6.85;;;3.47;;
64313;SDS011;50650;48.180;11.524;2022-11-11T04:31:54;9.27;;;3.95;;
64313;SDS011;50650;48.180;11.524;2022-11-11T04:34:39;5.35;;;3.35;;
64313;SDS011;50650;48.180;11.524;2022-11-11T04:37:07;5.65;;;3.70;;
64313;SDS011;50650;48.180;11.524;2022-11-11T04:39:33;4.65;;;3.25;;
64313;SDS011;50650;48.180;11.524;2022-11-11T04:42:18;7.95;;;4.20;;
64313;SDS011;50650;48.180;11.524;2022-11-11T04:44:44;5.95;;;3.35;;
64313;SDS011;50650;48.180;11.524;2022-11-11T04:47:29;5.07;;;3.70;;
64313;SDS011;50650;48.180;11.524;2022-11-11T04:49:55;8.80;;;4.03;;
64313;SDS011;50650;48.180;11.524;2022-11-11T04:52:23;9.13;;;4.50;;
64313;SDS011;50650;48.180;11.524;2022-11-11T04:54:53;8.10;;;3.95;;
64313;SDS011;50650;48.180;11.524;2022-11-11T04:57:38;6.13;;;3.47;;
64313;SDS011;50650;48.180;11.524;2022-11-11T05:00:06;7.90;;;3.30;;
64313;SDS011;50650;48.180;11.524;2022-11-11T05:02:33;8.27;;;3.35;;
64313;SDS011;50650;48.180;11.524;2022-11-11T05:05:18;5.40;;;3.40;;
64313;SDS011;50650;48.180;11.524;2022-11-11T05:07:46;7.15;;;3.55;;
64313;SDS011;50650;48.180;11.524;2022-11-11T05:10:30;7.40;;;3.22;;
64313;SDS011;50650;48.180;11.524;2022-11-11T05:12:56;6.25;;;3.40;;
64313;SDS011;50650;48.180;11.524;2022-11-11T05:15:43;7.55;;;3.10;;
64313;SDS011;50650;48.180;11.524;2022-11-11T05:18:27;6.53;;;3.00;;
64313;SDS011;50650;48.180;11.524;2022-11-11T05:21:11;4.30;;;2.83;;
64313;SDS011;50650;48.180;11.524;2022-11-11T05:23:47;5.55;;;3.30;;
64313;SDS011;50650;48.180;11.524;2022-11-11T05:26:32;6.88;;;3.00;;
64313;SDS011;50650;48.180;11.524;2022-11-11T05:28:58;5.22;;;2.78;;
64313;SDS011;50650;48.180;11.524;2022-11-11T05:31:25;5.40;;;3.17;;
64313;SDS011;50650;48.180;11.524;2022-11-11T05:33:51;5.25;;;3.00;;
64313;SDS011;50650;48.180;11.524;2022-11-11T05:36:18;6.82;;;3.30;;
64313;SDS011;50650;48.180;11.524;2022-11-11T05:38:44;11.30;;;4.03;;
64313;SDS011;50650;48.180;11.524;2022-11-11T05:41:12;7.95;;;4.68;;
64313;SDS011;50650;48.180;11.524;2022-11-11T05:43:39;8.30;;;4.07;;
64313;SDS011;50650;48.180;11.524;2022-11-11T05:46:05;7.25;;;3.38;;
64313;SDS011;50650;48.180;11.524;2022-11-11T05:48:32;4.72;;;3.25;;
64313;SDS011;50650;48.180;11.524;2022-11-11T05:50:58;6.60;;;3.63;;
64313;SDS011;50650;48.180;11.524;2022-11-11T05:53:25;9.77;;;3.95;;
64313;SDS011;50650;48.180;11.524;2022-11-11T05:55:52;5.72;;;3.45;;
64313;SDS011;50650;48.180;11.524;2022-11-11T05:58:20;6.45;;;3.58;;
64313;SDS011;50650;48.180;11.524;2022-11-11T06:00:46;9.32;;;3.83;;
64313;SDS011;50650;48.180;11.524;2022-11-11T06:03:13;9.05;;;3.97;;
64313;SDS011;50650;48.180;11.524;2022-11-11T06:05:39;7.45;;;4.28;;
64313;SDS011;50650;48.180;11.524;2022-11-11T06:08:06;7.70;;;4.13;;
64313;SDS011;50650;48.180;11.524;2022-11-11T06:10:32;9.85;;;4.43;;
64313;SDS011;50650;48.180;11.524;2022-11-11T06:12:59;6.97;;;4.28;;
64313;SDS011;50650;48.180;11.524;2022-11-11T06:15:33;8.40;;;4.45;;
64313;SDS011;50650;48.180;11.524;2022-11-11T06:17:59;8.00;;;4.30;;
64313;SDS011;50650;48.180;11.524;2022-11-11T06:20:26;12.07;;;4.25;;
64313;SDS011;50650;48.180;11.524;2022-11-11T06:22:53;11.40;;;4.20;;
64313;SDS011;50650;48.180;11.524;2022-11-11T06:25:23;7.22;;;3.75;;
64313;SDS011;50650;48.180;11.524;2022-11-11T06:28:07;7.30;;;4.35;;
64313;SDS011;50650;48.180;11.524;2022-11-11T06:30:36;6.53;;;4.43;;
64313;SDS011;50650;48.180;11.524;2022-11-11T06:33:02;9.93;;;5.28;;
64313;SDS011;50650;48.180;11.524;2022-11-11T06:35:31;15.95;;;9.10;;
64313;SDS011;50650;48.180;11.524;2022-11-11T06:38:00;26.88;;;13.13;;
64313;SDS011;50650;48.180;11.524;2022-11-11T06:40:27;24.98;;;11.88;;
64313;SDS011;50650;48.180;11.524;2022-11-11T06:42:54;16.90;;;8.57;;
64313;SDS011;50650;48.180;11.524;2022-11-11T06:45:21;8.30;;;5.30;;
64313;SDS011;50650;48.180;11.524;2022-11-11T06:47:49;19.20;;;4.80;;
64313;SDS011;50650;48.180;11.524;2022-11-11T06:50:16;13.55;;;4.30;;
64313;SDS011;50650;48.180;11.524;2022-11-11T06:52:43;7.18;;;4.80;;
64313;SDS011;50650;48.180;11.524;2022-11-11T06:55:10;8.40;;;4.32;;
64313;SDS011;50650;48.180;11.524;2022-11-11T06:57:37;8.43;;;4.22;;
64313;SDS011;50650;48.180;11.524;2022-11-11T07:00:04;9.10;;;4.35;;
64313;SDS011;50650;48.180;11.524;2022-11-11T07:02:31;7.88;;;4.53;;
64313;SDS011;50650;48.180;11.524;2022-11-11T07:04:59;7.00;;;4.28;;
64313;SDS011;50650;48.180;11.524;2022-11-11T07:07:26;8.60;;;4.18;;
64313;SDS011;50650;48.180;11.524;2022-11-11T07:09:53;7.38;;;3.88;;
64313;SDS011;50650;48.180;11.524;2022-11-11T07:12:20;9.73;;;4.55;;
64313;SDS011;50650;48.180;11.524;2022-11-11T07:14:46;7.35;;;4.07;;
64313;SDS011;50650;48.180;11.524;2022-11-11T07:17:13;7.70;;;4.50;;
64313;SDS011;50650;48.180;11.524;2022-11-11T07:19:41;9.85;;;4.40;;
64313;SDS011;50650;48.180;11.524;2022-11-11T07:22:09;8.48;;;4.15;;
64313;SDS011;50650;48.180;11.524;2022-11-11T07:24:35;9.35;;;3.97;;
64313;SDS011;50650;48.180;11.524;2022-11-11T07:27:02;5.68;;;3.85;;
64313;SDS011;50650;48.180;11.524;2022-11-11T07:29:28;5.60;;;3.50;;
64313;SDS011;50650;48.180;11.524;2022-11-11T07:31:55;7.13;;;3.83;;
64313;SDS011;50650;48.180;11.524;2022-11-11T07:34:21;5.15;;;3.70;;
64313;SDS011;50650;48.180;11.524;2022-11-11T07:36:48;5.50;;;3.67;;
64313;SDS011;50650;48.180;11.524;2022-11-11T07:39:16;9.70;;;3.80;;
64313;SDS011;50650;48.180;11.524;2022-11-11T07:41:42;5.75;;;3.63;;
64313;SDS011;50650;48.180;11.524;2022-11-11T07:44:09;8.38;;;3.78;;
64313;SDS011;50650;48.180;11.524;2022-11-11T07:46:35;5.53;;;3.88;;
64313;SDS011;50650;48.180;11.524;2022-11-11T07:49:02;5.53;;;3.53;;
64313;SDS011;50650;48.180;11.524;2022-11-11T07:51:28;6.15;;;4.07;;
64313;SDS011;50650;48.180;11.524;2022-11-11T07:53:55;7.10;;;3.85;;
64313;SDS011;50650;48.180;11.524;2022-11-11T07:56:23;8.18;;;3.28;;
64313;SDS011;50650;48.180;11.524;2022-11-11T07:58:50;5.38;;;3.47;;
64313;SDS011;50650;48.180;11.524;2022-11-11T08:01:16;7.55;;;3.47;;
64313;SDS011;50650;48.180;11.524;2022-11-11T08:03:43;6.20;;;3.83;;
64313;SDS011;50650;48.180;11.524;2022-11-11T08:06:14;7.70;;;3.78;;
64313;SDS011;50650;48.180;11.524;2022-11-11T08:08:41;7.32;;;4.50;;
64313;SDS011;50650;48.180;11.524;2022-11-11T08:11:08;11.38;;;6.20;;
64313;SDS011;50650;48.180;11.524;2022-11-11T08:13:35;9.00;;;5.38;;
64313;SDS011;50650;48.180;11.524;2022-11-11T08:16:04;10.98;;;5.88;;
64313;SDS011;50650;48.180;11.524;2022-11-11T08:18:31;11.50;;;4.82;;
64313;SDS011;50650;48.180;11.524;2022-11-11T08:20:58;9.85;;;5.20;;
64313;SDS011;50650;48.180;11.524;2022-11-11T08:23:24;9.73;;;5.03;;
64313;SDS011;50650;48.180;11.524;2022-11-11T08:25:56;9.00;;;4.68;;
64313;SDS011;50650;48.180;11.524;2022-11-11T08:28:24;7.35;;;4.32;;
64313;SDS011;50650;48.180;11.524;2022-11-11T08:30:52;8.07;;;4.35;;
64313;SDS011;50650;48.180;11.524;2022-11-11T08:33:18;13.07;;;4.97;;
64313;SDS011;50650;48.180;11.524;2022-11-11T08:35:45;6.53;;;4.30;;
64313;SDS011;50650;48.180;11.524;2022-11-11T08:38:12;10.40;;;4.38;;
64313;SDS011;50650;48.180;11.524;2022-11-11T08:40:39;8.48;;;4.55;;
64313;SDS011;50650;48.180;11.524;2022-11-11T08:43:05;7.88;;;4.70;;
64313;SDS011;50650;48.180;11.524;2022-11-11T08:45:32;10.73;;;4.28;;
64313;SDS011;50650;48.180;11.524;2022-11-11T08:48:00;10.30;;;4.13;;
64313;SDS011;50650;48.180;11.524;2022-11-11T08:50:26;13.38;;;4.78;;
64313;SDS011;50650;48.180;11.524;2022-11-11T08:52:53;13.05;;;5.32;;
64313;SDS011;50650;48.180;11.524;2022-11-11T08:55:19;8.63;;;4.25;;
64313;SDS011;50650;48.180;11.524;2022-11-11T08:57:46;9.50;;;4.40;;
64313;SDS011;50650;48.180;11.524;2022-11-11T09:00:13;11.82;;;3.80;;
64313;SDS011;50650;48.180;11.524;2022-11-11T09:02:40;10.13;;;4.53;;
64313;SDS011;50650;48.180;11.524;2022-11-11T09:05:08;8.25;;;3.90;;
64313;SDS011;50650;48.180;11.524;2022-11-11T09:07:35;7.25;;;3.50;;
64313;SDS011;50650;48.180;11.524;2022-11-11T09:10:01;8.07;;;3.47;;
64313;SDS011;50650;48.180;11.524;2022-11-11T09:12:29;9.40;;;3.35;;
64313;SDS011;50650;48.180;11.524;2022-11-11T09:14:56;10.95;;;3.40;;
64313;SDS011;50650;48.180;11.524;2022-11-11T09:17:22;11.75;;;3.35;;
64313;SDS011;50650;48.180;11.524;2022-11-11T09:19:49;6.45;;;3.78;;
64313;SDS011;50650;48.180;11.524;2022-11-11T09:22:17;8.38;;;3.45;;
64313;SDS011;50650;48.180;11.524;2022-11-11T09:24:43;5.47;;;3.00;;
64313;SDS011;50650;48.180;11.524;2022-11-11T09:27:11;7.65;;;3.05;;
64313;SDS011;50650;48.180;11.524;2022-11-11T09:29:38;5.88;;;2.72;;
64313;SDS011;50650;48.180;11.524;2022-11-11T09:32:04;4.90;;;2.78;;
64313;SDS011;50650;48.180;11.524;2022-11-11T09:34:31;4.90;;;2.72;;
64313;SDS011;50650;48.180;11.524;2022-11-11T09:36:58;7.82;;;2.85;;
64313;SDS011;50650;48.180;11.524;2022-11-11T09:39:25;7.72;;;2.88;;
64313;SDS011;50650;48.180;11.524;2022-11-11T09:41:53;11.38;;;2.85;;
64313;SDS011;50650;48.180;11.524;2022-11-11T09:44:28;4.85;;;2.53;;
64313;SDS011;50650;48.180;11.524;2022-11-11T09:47:09;8.33;;;2.83;;
64313;SDS011;50650;48.180;11.524;2022-11-11T09:49:53;7.13;;;3.05;;
64313;SDS011;50650;48.180;11.524;2022-11-11T09:52:25;9.90;;;4.60;;
64313;SDS011;50650;48.180;11.524;2022-11-11T09:54:56;5.53;;;2.75;;
64313;SDS011;50650;48.180;11.524;2022-11-11T09:57:26;5.05;;;2.30;;
64313;SDS011;50650;48.180;11.524;2022-11-11T09:59:59;6.05;;;2.30;;
64313;SDS011;50650;48.180;11.524;2022-11-11T10:02:33;7.38;;;2.67;;
64313;SDS011;50650;48.180;11.524;2022-11-11T10:05:02;10.20;;;2.50;;
64313;SDS011;50650;48.180;11.524;2022-11-11T10:07:33;2.85;;;1.95;;
64313;SDS011;50650;48.180;11.524;2022-11-11T10:10:13;5.13;;;2.13;;
64313;SDS011;50650;48.180;11.524;2022-11-11T10:12:45;3.10;;;2.03;;
64313;SDS011;50650;48.180;11.524;2022-11-11T10:15:18;4.72;;;2.13;;
64313;SDS011;50650;48.180;11.524;2022-11-11T10:17:49;3.55;;;2.00;;
64313;SDS011;50650;48.180;11.524;2022-11-11T10:20:22;6.38;;;2.15;;
64313;SDS011;50650;48.180;11.524;2022-11-11T10:22:52;4.28;;;2.05;;
64313;SDS011;50650;48.180;11.524;2022-11-11T10:25:25;3.03;;;2.15;;
64313;SDS011;50650;48.180;11.524;2022-11-11T10:27:53;6.38;;;2.30;;
64313;SDS011;50650;48.180;11.524;2022-11-11T10:30:22;7.03;;;2.83;;
64313;SDS011;50650;48.180;11.524;2022-11-11T10:32:53;8.32;;;3.20;;
64313;SDS011;50650;48.180;11.524;2022-11-11T10:35:23;9.70;;;3.00;;
64313;SDS011;50650;48.180;11.524;2022-11-11T10:37:55;6.10;;;3.55;;
64313;SDS011;50650;48.180;11.524;2022-11-11T10:40:28;5.57;;;3.28;;
64313;SDS011;50650;48.180;11.524;2022-11-11T10:43:00;5.63;;;2.70;;
64313;SDS011;50650;48.180;11.524;2022-11-11T10:45:27;9.18;;;3.03;;
64313;SDS011;50650;48.180;11.524;2022-11-11T10:47:57;5.82;;;2.67;;
64313;SDS011;50650;48.180;11.524;2022-11-11T10:50:27;3.50;;;2.22;;
64313;SDS011;50650;48.180;11.524;2022-11-11T10:52:58;4.75;;;2.53;;
64313;SDS011;50650;48.180;11.524;2022-11-11T10:55:28;8.05;;;2.90;;
64313;SDS011;50650;48.180;11.524;2022-11-11T10:57:58;7.60;;;2.58;;
64313;SDS011;50650;48.180;11.524;2022-11-11T11:00:27;4.65;;;2.40;;
64313;SDS011;50650;48.180;11.524;2022-11-11T11:02:54;8.25;;;2.45;;
64313;SDS011;50650;48.180;11.524;2022-11-11T11:05:25;5.93;;;3.10;;
64313;SDS011;50650;48.180;11.524;2022-11-11T11:07:54;7.15;;;3.30;;
64313;SDS011;50650;48.180;11.524;2022-11-11T11:10:23;7.88;;;3.50;;
64313;SDS011;50650;48.180;11.524;2022-11-11T11:12:53;5.78;;;3.55;;
64313;SDS011;50650;48.180;11.524;2022-11-11T11:15:25;6.80;;;4.07;;
64313;SDS011;50650;48.180;11.524;2022-11-11T11:17:53;6.65;;;4.25;;
64313;SDS011;50650;48.180;11.524;2022-11-11T11:20:23;8.23;;;4.25;;
64313;SDS011;50650;48.180;11.524;2022-11-11T11:22:50;8.80;;;4.28;;
64313;SDS011;50650;48.180;11.524;2022-11-11T11:25:18;6.85;;;4.00;;
64313;SDS011;50650;48.180;11.524;2022-11-11T11:27:45;10.45;;;4.32;;
64313;SDS011;50650;48.180;11.524;2022-11-11T11:30:15;6.93;;;4.00;;
64313;SDS011;50650;48.180;11.524;2022-11-11T11:32:54;8.45;;;4.00;;
64313;SDS011;50650;48.180;11.524;2022-11-11T11:35:29;6.35;;;3.50;;
64313;SDS011;50650;48.180;11.524;2022-11-11T11:37:57;13.30;;;4.18;;
64313;SDS011;50650;48.180;11.524;2022-11-11T11:40:24;7.00;;;4.53;;
64313;SDS011;50650;48.180;11.524;2022-11-11T11:42:50;4.85;;;3.53;;
64313;SDS011;50650;48.180;11.524;2022-11-11T11:45:23;9.52;;;4.03;;
64313;SDS011;50650;48.180;11.524;2022-11-11T11:47:57;11.30;;;4.47;;
64313;SDS011;50650;48.180;11.524;2022-11-11T11:50:35;8.70;;;4.15;;
64313;SDS011;50650;48.180;11.524;2022-11-11T11:53:17;7.35;;;3.92;;
64313;SDS011;50650;48.180;11.524;2022-11-11T11:55:50;8.20;;;4.28;;
64313;SDS011;50650;48.180;11.524;2022-11-11T11:58:23;9.07;;;3.90;;
64313;SDS011;50650;48.180;11.524;2022-11-11T12:01:00;8.40;;;3.75;;
64313;SDS011;50650;48.180;11.524;2022-11-11T12:03:55;5.95;;;4.07;;
64313;SDS011;50650;48.180;11.524;2022-11-11T12:06:31;5.20;;;3.70;;
64313;SDS011;50650;48.180;11.524;2022-11-11T12:09:06;9.82;;;4.07;;
64313;SDS011;50650;48.180;11.524;2022-11-11T12:11:38;6.43;;;3.60;;
64313;SDS011;50650;48.180;11.524;2022-11-11T12:14:17;5.88;;;3.72;;
64313;SDS011;50650;48.180;11.524;2022-11-11T12:17:00;9.07;;;4.07;;
64313;SDS011;50650;48.180;11.524;2022-11-11T12:19:31;6.72;;;4.07;;
64313;SDS011;50650;48.180;11.524;2022-11-11T12:22:05;6.43;;;3.85;;
64313;SDS011;50650;48.180;11.524;2022-11-11T12:24:47;6.05;;;4.00;;
64313;SDS011;50650;48.180;11.524;2022-11-11T12:27:19;5.32;;;4.07;;
64313;SDS011;50650;48.180;11.524;2022-11-11T12:30:02;7.63;;;3.70;;
64313;SDS011;50650;48.180;11.524;2022-11-11T12:32:38;5.93;;;3.97;;
64313;SDS011;50650;48.180;11.524;2022-11-11T12:35:25;7.72;;;4.22;;
64313;SDS011;50650;48.180;11.524;2022-11-11T12:38:01;9.95;;;4.05;;
64313;SDS011;50650;48.180;11.524;2022-11-11T12:40:39;8.15;;;4.07;;
64313;SDS011;50650;48.180;11.524;2022-11-11T12:43:14;7.28;;;3.65;;
64313;SDS011;50650;48.180;11.524;2022-11-11T12:45:46;8.68;;;3.90;;
64313;SDS011;50650;48.180;11.524;2022-11-11T12:48:20;6.05;;;3.85;;
64313;SDS011;50650;48.180;11.524;2022-11-11T12:50:56;5.53;;;4.00;;
64313;SDS011;50650;48.180;11.524;2022-11-11T12:53:29;6.75;;;4.05;;
64313;SDS011;50650;48.180;11.524;2022-11-11T12:56:00;7.45;;;4.03;;
64313;SDS011;50650;48.180;11.524;2022-11-11T12:58:32;10.05;;;3.90;;
64313;SDS011;50650;48.180;11.524;2022-11-11T13:01:08;5.68;;;3.90;;
64313;SDS011;50650;48.180;11.524;2022-11-11T13:03:46;8.05;;;3.97;;
64313;SDS011;50650;48.180;11.524;2022-11-11T13:06:22;5.22;;;3.38;;
64313;SDS011;50650;48.180;11.524;2022-11-11T13:09:02;6.60;;;3.67;;
64313;SDS011;50650;48.180;11.524;2022-11-11T13:11:35;8.60;;;3.10;;
64313;SDS011;50650;48.180;11.524;2022-11-11T13:16:57;5.38;;;3.03;;
64313;SDS011;50650;48.180;11.524;2022-11-11T13:19:30;5.47;;;3.10;;
64313;SDS011;50650;48.180;11.524;2022-11-11T13:22:00;6.00;;;3.50;;
64313;SDS011;50650;48.180;11.524;2022-11-11T13:24:28;6.38;;;3.13;;
64313;SDS011;50650;48.180;11.524;2022-11-11T13:26:57;4.20;;;3.10;;
64313;SDS011;50650;48.180;11.524;2022-11-11T13:29:33;6.07;;;3.60;;
64313;SDS011;50650;48.180;11.524;2022-11-11T13:32:07;6.07;;;3.50;;
64313;SDS011;50650;48.180;11.524;2022-11-11T13:34:37;5.22;;;3.70;;
64313;SDS011;50650;48.180;11.524;2022-11-11T13:37:05;5.05;;;3.00;;
64313;SDS011;50650;48.180;11.524;2022-11-11T13:39:36;6.07;;;3.28;;
64313;SDS011;50650;48.180;11.524;2022-11-11T13:42:04;9.65;;;2.97;;
64313;SDS011;50650;48.180;11.524;2022-11-11T13:44:32;5.22;;;2.90;;
64313;SDS011;50650;48.180;11.524;2022-11-11T13:47:02;5.93;;;3.08;;
64313;SDS011;50650;48.180;11.524;2022-11-11T13:49:31;5.50;;;3.03;;
64313;SDS011;50650;48.180;11.524;2022-11-11T13:52:00;4.28;;;3.30;;
64313;SDS011;50650;48.180;11.524;2022-11-11T13:54:29;4.00;;;2.95;;
64313;SDS011;50650;48.180;11.524;2022-11-11T13:57:00;4.53;;;3.05;;
64313;SDS011;50650;48.180;11.524;2022-11-11T13:59:30;6.60;;;2.97;;
64313;SDS011;50650;48.180;11.524;2022-11-11T14:02:11;4.85;;;3.35;;
64313;SDS011;50650;48.180;11.524;2022-11-11T14:07:55;4.78;;;2.85;;
64313;SDS011;50650;48.180;11.524;2022-11-11T14:10:43;4.60;;;3.05;;
64313;SDS011;50650;48.180;11.524;2022-11-11T14:13:39;5.28;;;2.97;;
64313;SDS011;50650;48.180;11.524;2022-11-11T14:16:12;5.40;;;2.80;;
64313;SDS011;50650;48.180;11.524;2022-11-11T14:22:16;4.63;;;2.90;;
64313;SDS011;50650;48.180;11.524;2022-11-11T14:24:55;4.10;;;2.35;;
64313;SDS011;50650;48.180;11.524;2022-11-11T14:27:47;4.43;;;2.42;;
64313;SDS011;50650;48.180;11.524;2022-11-11T14:33:09;4.38;;;2.35;;
64313;SDS011;50650;48.180;11.524;2022-11-11T14:35:43;2.65;;;1.83;;
64313;SDS011;50650;48.180;11.524;2022-11-11T14:38:21;3.28;;;2.08;;
64313;SDS011;50650;48.180;11.524;2022-11-11T14:40:57;8.40;;;2.50;;
64313;SDS011;50650;48.180;11.524;2022-11-11T14:47:24;5.38;;;2.20;;
64313;SDS011;50650;48.180;11.524;2022-11-11T14:49:57;6.32;;;2.50;;
64313;SDS011;50650;48.180;11.524;2022-11-11T14:52:27;4.35;;;2.17;;
64313;SDS011;50650;48.180;11.524;2022-11-11T14:55:01;5.90;;;2.40;;
64313;SDS011;50650;48.180;11.524;2022-11-11T14:57:36;6.95;;;2.60;;
64313;SDS011;50650;48.180;11.524;2022-11-11T15:00:04;4.35;;;2.17;;
64313;SDS011;50650;48.180;11.524;2022-11-11T15:02:37;3.72;;;1.88;;
64313;SDS011;50650;48.180;11.524;2022-11-11T15:05:11;5.10;;;2.30;;
64313;SDS011;50650;48.180;11.524;2022-11-11T15:10:35;4.65;;;2.38;;
64313;SDS011;50650;48.180;11.524;2022-11-11T15:13:13;4.93;;;2.67;;
64313;SDS011;50650;48.180;11.524;2022-11-11T15:15:48;4.13;;;2.38;;
64313;SDS011;50650;48.180;11.524;2022-11-11T15:18:30;3.40;;;2.30;;